sensor_id;sensor_type;location;lat;lon;timestamp;pressure;altitude;pressure_sealevel;temperature;humidity
4836;BME280;66719;51.226;6.902;2023-03-23T00:01:08;99721.66;;;12.21;100.00
4836;BME280;66719;51.226;6.902;2023-03-23T00:03:45;99712.88;;;12.22;100.00
4836;BME280;66719;51.226;6.902;2023-03-23T00:06:11;99719.81;;;12.23;100.00
4836;BME280;66719;51.226;6.902;2023-03-23T00:08:43;99701.66;;;12.18;100.00
4836;BME280;66719;51.226;6.902;2023-03-23T00:11:21;99707.78;;;12.19;100.00
4836;BME280;66719;51.226;6.902;2023-03-23T00:13:49;99700.44;;;12.27;100.00
4836;BME280;66719;51.226;6.902;2023-03-23T00:16:18;99695.34;;;12.22;100.00
4836;BME280;66719;51.226;6.902;2023-03-23T00:18:55;99701.78;;;12.15;100.00
4836;BME280;66719;51.226;6.902;2023-03-23T00:21:21;99692.19;;;12.14;100.00
4836;BME280;66719;51.226;6.902;2023-03-23T00:23:53;99694.97;;;12.11;100.00
4836;BME280;66719;51.226;6.902;2023-03-23T00:26:18;99691.56;;;12.09;100.00
4836;BME280;66719;51.226;6.902;2023-03-23T00:28:44;99683.72;;;12.07;100.00
4836;BME280;66719;51.226;6.902;2023-03-23T00:31:12;99675.84;;;12.07;100.00
4836;BME280;66719;51.226;6.902;2023-03-23T00:33:39;99674.16;;;12.06;100.00
4836;BME280;66719;51.226;6.902;2023-03-23T00:36:10;99673.38;;;12.04;100.00
4836;BME280;66719;51.226;6.902;2023-03-23T00:38:37;99669.09;;;12.02;100.00
4836;BME280;66719;51.226;6.902;2023-03-23T00:41:04;99677.91;;;12.01;100.00
4836;BME280;66719;51.226;6.902;2023-03-23T00:43:31;99678.69;;;12.03;100.00
4836;BME280;66719;51.226;6.902;2023-03-23T00:45:57;99687.41;;;12.03;100.00
4836;BME280;66719;51.226;6.902;2023-03-23T00:48:27;99686.63;;;12.01;100.00
4836;BME280;66719;51.226;6.902;2023-03-23T00:50:53;99674.44;;;12.00;100.00
4836;BME280;66719;51.226;6.902;2023-03-23T00:53:19;99675.34;;;11.99;100.00
4836;BME280;66719;51.226;6.902;2023-03-23T00:55:46;99678.81;;;12.00;100.00
4836;BME280;66719;51.226;6.902;2023-03-23T00:58:13;99670.94;;;12.00;100.00
4836;BME280;66719;51.226;6.902;2023-03-23T01:00:39;99661.31;;;12.00;100.00
4836;BME280;66719;51.226;6.902;2023-03-23T01:03:06;99658.72;;;11.99;100.00
4836;BME280;66719;51.226;6.902;2023-03-23T01:05:36;99669.28;;;11.97;100.00
4836;BME280;66719;51.226;6.902;2023-03-23T01:08:03;99664.97;;;11.96;100.00
4836;BME280;66719;51.226;6.902;2023-03-23T01:10:29;99665.03;;;11.95;100.00
4836;BME280;66719;51.226;6.902;2023-03-23T01:12:58;99663.31;;;11.94;100.00
4836;BME280;66719;51.226;6.902;2023-03-23T01:15:25;99661.56;;;11.94;100.00
4836;BME280;66719;51.226;6.902;2023-03-23T01:17:50;99659.72;;;11.96;100.00
4836;BME280;66719;51.226;6.902;2023-03-23T01:20:16;99656.16;;;11.97;100.00
4836;BME280;66719;51.226;6.902;2023-03-23T01:22:42;99665.75;;;11.98;100.00
4836;BME280;66719;51.226;6.902;2023-03-23T01:25:10;99663.25;;;11.95;100.00
4836;BME280;66719;51.226;6.902;2023-03-23T01:27:36;99661.69;;;11.91;100.00
4836;BME280;66719;51.226;6.902;2023-03-23T01:30:03;99657.47;;;11.87;100.00
4836;BME280;66719;51.226;6.902;2023-03-23T01:32:29;99661.94;;;11.85;100.00
4836;BME280;66719;51.226;6.902;2023-03-23T01:34:55;99661.16;;;11.83;100.00
4836;BME280;66719;51.226;6.902;2023-03-23T01:37:20;99654.25;;;11.80;100.00
4836;BME280;66719;51.226;6.902;2023-03-23T01:39:54;99663.97;;;11.77;100.00
4836;BME280;66719;51.226;6.902;2023-03-23T01:42:31;99653.63;;;11.74;100.00
4836;BME280;66719;51.226;6.902;2023-03-23T01:48:22;99643.25;;;11.71;100.00
4836;BME280;66719;51.226;6.902;2023-03-23T01:51:10;99611.91;;;11.68;100.00
4836;BME280;66719;51.226;6.902;2023-03-23T01:53:41;99610.31;;;11.64;100.00
4836;BME280;66719;51.226;6.902;2023-03-23T01:56:09;99610.44;;;11.60;100.00
4836;BME280;66719;51.226;6.902;2023-03-23T01:58:38;99614.06;;;11.58;100.00
4836;BME280;66719;51.226;6.902;2023-03-23T02:01:07;99619.47;;;11.53;100.00
4836;BME280;66719;51.226;6.902;2023-03-23T02:03:35;99603.88;;;11.50;100.00
4836;BME280;66719;51.226;6.902;2023-03-23T02:06:01;99583.94;;;11.46;100.00
4836;BME280;66719;51.226;6.902;2023-03-23T02:08:28;99575.28;;;11.44;100.00
4836;BME280;66719;51.226;6.902;2023-03-23T02:10:55;99561.47;;;11.41;100.00
4836;BME280;66719;51.226;6.902;2023-03-23T02:13:21;99561.56;;;11.38;100.00
4836;BME280;66719;51.226;6.902;2023-03-23T02:15:54;99564.25;;;11.36;100.00
4836;BME280;66719;51.226;6.902;2023-03-23T02:18:46;99559.03;;;11.36;100.00
4836;BME280;66719;51.226;6.902;2023-03-23T02:24:30;99576.66;;;11.32;100.00
4836;BME280;66719;51.226;6.902;2023-03-23T02:27:08;99566.25;;;11.31;100.00
4836;BME280;66719;51.226;6.902;2023-03-23T02:32:50;99539.22;;;11.29;100.00
4836;BME280;66719;51.226;6.902;2023-03-23T02:35:28;99533.19;;;11.27;100.00
4836;BME280;66719;51.226;6.902;2023-03-23T02:37:59;99542.75;;;11.28;100.00
4836;BME280;66719;51.226;6.902;2023-03-23T02:40:30;99535.03;;;11.25;100.00
4836;BME280;66719;51.226;6.902;2023-03-23T02:42:58;99531.63;;;11.23;100.00
4836;BME280;66719;51.226;6.902;2023-03-23T02:45:27;99526.47;;;11.21;100.00
4836;BME280;66719;51.226;6.902;2023-03-23T02:47:54;99531.72;;;11.20;100.00
4836;BME280;66719;51.226;6.902;2023-03-23T02:50:22;99530.88;;;11.19;100.00
4836;BME280;66719;51.226;6.902;2023-03-23T02:52:50;99535.34;;;11.17;100.00
4836;BME280;66719;51.226;6.902;2023-03-23T02:55:19;99540.56;;;11.17;100.00
4836;BME280;66719;51.226;6.902;2023-03-23T02:57:50;99550.22;;;11.17;100.00
4836;BME280;66719;51.226;6.902;2023-03-23T03:00:16;99549.50;;;11.13;100.00
4836;BME280;66719;51.226;6.902;2023-03-23T03:02:54;99550.41;;;11.12;100.00
4836;BME280;66719;51.226;6.902;2023-03-23T03:06:27;99546.97;;;11.10;100.00
4836;BME280;66719;51.226;6.902;2023-03-23T03:08:27;99542.56;;;11.12;100.00
4836;BME280;66719;51.226;6.902;2023-03-23T03:19:10;99549.28;;;11.18;100.00
4836;BME280;66719;51.226;6.902;2023-03-23T03:21:40;99544.06;;;11.18;100.00
4836;BME280;66719;51.226;6.902;2023-03-23T03:24:07;99551.06;;;11.17;100.00
4836;BME280;66719;51.226;6.902;2023-03-23T03:26:38;99550.13;;;11.18;100.00
4836;BME280;66719;51.226;6.902;2023-03-23T03:29:05;99546.59;;;11.19;100.00
4836;BME280;66719;51.226;6.902;2023-03-23T03:31:35;99547.44;;;11.20;100.00
4836;BME280;66719;51.226;6.902;2023-03-23T03:34:03;99535.28;;;11.19;100.00
4836;BME280;66719;51.226;6.902;2023-03-23T03:36:31;99540.50;;;11.19;100.00
4836;BME280;66719;51.226;6.902;2023-03-23T03:39:03;99541.31;;;11.21;100.00
4836;BME280;66719;51.226;6.902;2023-03-23T03:41:37;99543.94;;;11.21;100.00
4836;BME280;66719;51.226;6.902;2023-03-23T03:44:03;99555.22;;;11.23;100.00
4836;BME280;66719;51.226;6.902;2023-03-23T03:46:30;99552.59;;;11.23;100.00
4836;BME280;66719;51.226;6.902;2023-03-23T03:48:59;99557.84;;;11.23;100.00
4836;BME280;66719;51.226;6.902;2023-03-23T03:51:25;99566.53;;;11.23;100.00
4836;BME280;66719;51.226;6.902;2023-03-23T03:53:51;99560.44;;;11.23;100.00
4836;BME280;66719;51.226;6.902;2023-03-23T03:56:17;99566.59;;;11.22;100.00
4836;BME280;66719;51.226;6.902;2023-03-23T03:58:43;99559.59;;;11.22;100.00
4836;BME280;66719;51.226;6.902;2023-03-23T04:01:09;99556.97;;;11.22;100.00
4836;BME280;66719;51.226;6.902;2023-03-23T04:03:36;99556.97;;;11.22;100.00
4836;BME280;66719;51.226;6.902;2023-03-23T04:06:02;99557.75;;;11.24;100.00
4836;BME280;66719;51.226;6.902;2023-03-23T04:08:28;99566.47;;;11.25;100.00
4836;BME280;66719;51.226;6.902;2023-03-23T04:10:53;99565.63;;;11.24;100.00
4836;BME280;66719;51.226;6.902;2023-03-23T04:13:19;99554.28;;;11.24;100.00
4836;BME280;66719;51.226;6.902;2023-03-23T04:15:46;99557.84;;;11.23;100.00
4836;BME280;66719;51.226;6.902;2023-03-23T04:18:13;99562.22;;;11.22;100.00
4836;BME280;66719;51.226;6.902;2023-03-23T04:20:41;99556.06;;;11.23;100.00
4836;BME280;66719;51.226;6.902;2023-03-23T04:23:08;99557.84;;;11.23;100.00
4836;BME280;66719;51.226;6.902;2023-03-23T04:25:33;99562.22;;;11.22;100.00
4836;BME280;66719;51.226;6.902;2023-03-23T04:27:59;99563.06;;;11.23;100.00
4836;BME280;66719;51.226;6.902;2023-03-23T04:30:27;99564.78;;;11.24;100.00
4836;BME280;66719;51.226;6.902;2023-03-23T04:32:54;99575.31;;;11.22;100.00
4836;BME280;66719;51.226;6.902;2023-03-23T04:35:23;99564.78;;;11.24;100.00
4836;BME280;66719;51.226;6.902;2023-03-23T04:37:51;99563.06;;;11.23;100.00
4836;BME280;66719;51.226;6.902;2023-03-23T04:40:17;99575.31;;;11.22;100.00
4836;BME280;66719;51.226;6.902;2023-03-23T04:42:44;99578.00;;;11.21;100.00
4836;BME280;66719;51.226;6.902;2023-03-23T04:45:12;99573.63;;;11.21;100.00
4836;BME280;66719;51.226;6.902;2023-03-23T04:47:40;99582.34;;;11.22;100.00
4836;BME280;66719;51.226;6.902;2023-03-23T04:50:08;99583.25;;;11.21;100.00
4836;BME280;66719;51.226;6.902;2023-03-23T04:52:35;99590.06;;;11.25;100.00
4836;BME280;66719;51.226;6.902;2023-03-23T04:55:04;99590.84;;;11.27;100.00
4836;BME280;66719;51.226;6.902;2023-03-23T04:57:31;99590.78;;;11.28;100.00
4836;BME280;66719;51.226;6.902;2023-03-23T04:59:57;99586.38;;;11.29;100.00
4836;BME280;66719;51.226;6.902;2023-03-23T05:02:22;99579.44;;;11.28;100.00
4836;BME280;66719;51.226;6.902;2023-03-23T05:04:48;99585.53;;;11.28;100.00
4836;BME280;66719;51.226;6.902;2023-03-23T05:07:14;99592.53;;;11.28;100.00
4836;BME280;66719;51.226;6.902;2023-03-23T05:09:40;99598.63;;;11.28;100.00
4836;BME280;66719;51.226;6.902;2023-03-23T05:12:07;99596.00;;;11.28;100.00
4836;BME280;66719;51.226;6.902;2023-03-23T05:14:33;99599.50;;;11.29;100.00
4836;BME280;66719;51.226;6.902;2023-03-23T05:16:59;99603.00;;;11.29;100.00
4836;BME280;66719;51.226;6.902;2023-03-23T05:19:24;99601.22;;;11.30;100.00
4836;BME280;66719;51.226;6.902;2023-03-23T05:21:49;99603.03;;;11.28;100.00
4836;BME280;66719;51.226;6.902;2023-03-23T05:24:15;99606.47;;;11.30;100.00
4836;BME280;66719;51.226;6.902;2023-03-23T05:26:40;99602.94;;;11.31;100.00
4836;BME280;66719;51.226;6.902;2023-03-23T05:29:06;99609.81;;;11.33;100.00
4836;BME280;66719;51.226;6.902;2023-03-23T05:31:31;99615.09;;;11.32;100.00
4836;BME280;66719;51.226;6.902;2023-03-23T05:33:57;99608.94;;;11.33;100.00
4836;BME280;66719;51.226;6.902;2023-03-23T05:36:22;99608.94;;;11.33;100.00
4836;BME280;66719;51.226;6.902;2023-03-23T05:38:50;99608.81;;;11.36;100.00
4836;BME280;66719;51.226;6.902;2023-03-23T05:41:16;99607.97;;;11.36;100.00
4836;BME280;66719;51.226;6.902;2023-03-23T05:43:42;99618.28;;;11.40;100.00
4836;BME280;66719;51.226;6.902;2023-03-23T05:46:07;99612.78;;;11.46;100.00
4836;BME280;66719;51.226;6.902;2023-03-23T05:48:34;99620.63;;;11.46;100.00
4836;BME280;66719;51.226;6.902;2023-03-23T05:50:59;99621.56;;;11.45;100.00
4836;BME280;66719;51.226;6.902;2023-03-23T05:53:25;99624.91;;;11.49;100.00
4836;BME280;66719;51.226;6.902;2023-03-23T05:55:51;99619.53;;;11.52;100.00
4836;BME280;66719;51.226;6.902;2023-03-23T05:58:16;99619.47;;;11.53;100.00
4836;BME280;66719;51.226;6.902;2023-03-23T06:00:42;99619.69;;;11.49;100.00
4836;BME280;66719;51.226;6.902;2023-03-23T06:03:07;99629.31;;;11.48;100.00
4836;BME280;66719;51.226;6.902;2023-03-23T06:05:33;99637.03;;;11.51;100.00
4836;BME280;66719;51.226;6.902;2023-03-23T06:07:59;99627.34;;;11.53;100.00
4836;BME280;66719;51.226;6.902;2023-03-23T06:10:25;99638.75;;;11.52;100.00
4836;BME280;66719;51.226;6.902;2023-03-23T06:12:50;99641.38;;;11.52;100.00
4836;BME280;66719;51.226;6.902;2023-03-23T06:15:17;99639.50;;;11.56;100.00
4836;BME280;66719;51.226;6.902;2023-03-23T06:17:43;99645.53;;;11.58;100.00
4836;BME280;66719;51.226;6.902;2023-03-23T06:20:09;99657.41;;;11.67;100.00
4836;BME280;66719;51.226;6.902;2023-03-23T06:22:39;99658.88;;;11.74;100.00
4836;BME280;66719;51.226;6.902;2023-03-23T06:25:06;99666.91;;;11.69;100.00
4836;BME280;66719;51.226;6.902;2023-03-23T06:27:32;99662.41;;;11.73;100.00
4836;BME280;66719;51.226;6.902;2023-03-23T06:29:58;99662.41;;;11.73;100.00
4836;BME280;66719;51.226;6.902;2023-03-23T06:32:24;99665.81;;;11.75;100.00
4836;BME280;66719;51.226;6.902;2023-03-23T06:34:52;99666.66;;;11.75;100.00
4836;BME280;66719;51.226;6.902;2023-03-23T06:37:18;99673.34;;;11.84;100.00
4836;BME280;66719;51.226;6.902;2023-03-23T06:39:43;99673.22;;;11.87;100.00
4836;BME280;66719;51.226;6.902;2023-03-23T06:42:10;99676.69;;;11.87;100.00
4836;BME280;66719;51.226;6.902;2023-03-23T06:44:36;99671.56;;;11.84;100.00
4836;BME280;66719;51.226;6.902;2023-03-23T06:47:03;99672.28;;;11.88;100.00
4836;BME280;66719;51.226;6.902;2023-03-23T06:49:28;99672.28;;;11.88;100.00
4836;BME280;66719;51.226;6.902;2023-03-23T06:51:54;99677.66;;;11.85;100.00
4836;BME280;66719;51.226;6.902;2023-03-23T06:54:21;99674.00;;;11.89;100.00
4836;BME280;66719;51.226;6.902;2023-03-23T06:56:47;99680.59;;;11.99;100.00
4836;BME280;66719;51.226;6.902;2023-03-23T06:59:12;99681.63;;;11.95;100.00
4836;BME280;66719;51.226;6.902;2023-03-23T07:01:39;99699.00;;;11.98;100.00
4836;BME280;66719;51.226;6.902;2023-03-23T07:04:04;99693.72;;;11.99;100.00
4836;BME280;66719;51.226;6.902;2023-03-23T07:06:30;99691.09;;;11.99;100.00
4836;BME280;66719;51.226;6.902;2023-03-23T07:08:56;99690.19;;;11.99;100.00
4836;BME280;66719;51.226;6.902;2023-03-23T07:11:22;99703.38;;;11.97;100.00
4836;BME280;66719;51.226;6.902;2023-03-23T07:13:47;99695.50;;;11.97;100.00
4836;BME280;66719;51.226;6.902;2023-03-23T07:16:15;99696.25;;;12.01;100.00
4836;BME280;66719;51.226;6.902;2023-03-23T07:18:41;99694.56;;;12.00;100.00
4836;BME280;66719;51.226;6.902;2023-03-23T07:21:07;99695.41;;;12.00;100.00
4836;BME280;66719;51.226;6.902;2023-03-23T07:23:32;99683.22;;;11.99;100.00
4836;BME280;66719;51.226;6.902;2023-03-23T07:25:58;99685.63;;;12.04;100.00
4836;BME280;66719;51.226;6.902;2023-03-23T07:28:23;99686.41;;;12.06;100.00
4836;BME280;66719;51.226;6.902;2023-03-23T07:30:49;99688.25;;;12.04;100.00
4836;BME280;66719;51.226;6.902;2023-03-23T07:33:14;99698.81;;;12.02;100.00
4836;BME280;66719;51.226;6.902;2023-03-23T07:35:40;99691.66;;;12.06;100.00
4836;BME280;66719;51.226;6.902;2023-03-23T07:38:06;99697.75;;;12.06;100.00
4836;BME280;66719;51.226;6.902;2023-03-23T07:40:32;99698.44;;;12.11;100.00
4836;BME280;66719;51.226;6.902;2023-03-23T07:43:01;99693.88;;;12.16;100.00
4836;BME280;66719;51.226;6.902;2023-03-23T07:45:27;99693.88;;;12.16;100.00
4836;BME280;66719;51.226;6.902;2023-03-23T07:47:53;99692.19;;;12.14;100.00
4836;BME280;66719;51.226;6.902;2023-03-23T07:50:20;99689.66;;;12.12;100.00
4836;BME280;66719;51.226;6.902;2023-03-23T07:52:50;99696.34;;;12.20;100.00
4836;BME280;66719;51.226;6.902;2023-03-23T07:55:16;99690.25;;;12.19;100.00
4836;BME280;66719;51.226;6.902;2023-03-23T07:57:46;99688.63;;;12.16;100.00
4836;BME280;66719;51.226;6.902;2023-03-23T08:00:13;99687.88;;;12.13;100.00
4836;BME280;66719;51.226;6.902;2023-03-23T08:02:45;99699.03;;;12.18;100.00
4836;BME280;66719;51.226;6.902;2023-03-23T08:05:11;99692.81;;;12.21;100.00
4836;BME280;66719;51.226;6.902;2023-03-23T08:07:38;99693.59;;;12.23;100.00
4836;BME280;66719;51.226;6.902;2023-03-23T08:10:06;99701.06;;;12.32;100.00
4836;BME280;66719;51.226;6.902;2023-03-23T08:12:35;99699.28;;;12.32;100.00
4836;BME280;66719;51.226;6.902;2023-03-23T08:15:00;99697.34;;;12.37;100.00
4836;BME280;66719;51.226;6.902;2023-03-23T08:17:26;99693.13;;;12.33;100.00
4836;BME280;66719;51.226;6.902;2023-03-23T08:19:51;99699.03;;;12.38;100.00
4836;BME280;66719;51.226;6.902;2023-03-23T08:22:17;99706.91;;;12.38;100.00
4836;BME280;66719;51.226;6.902;2023-03-23T08:24:43;99703.44;;;12.38;100.00
4836;BME280;66719;51.226;6.902;2023-03-23T08:27:09;99704.22;;;12.40;100.00
4836;BME280;66719;51.226;6.902;2023-03-23T08:29:34;99703.31;;;12.41;100.00
4836;BME280;66719;51.226;6.902;2023-03-23T08:32:00;99698.47;;;12.52;100.00
4836;BME280;66719;51.226;6.902;2023-03-23T08:34:28;99709.88;;;12.51;100.00
4836;BME280;66719;51.226;6.902;2023-03-23T08:36:54;99706.44;;;12.49;100.00
4836;BME280;66719;51.226;6.902;2023-03-23T08:39:20;99706.38;;;12.51;100.00
4836;BME280;66719;51.226;6.902;2023-03-23T08:41:48;99708.16;;;12.50;100.00
4836;BME280;66719;51.226;6.902;2023-03-23T08:44:13;99716.84;;;12.52;100.00
4836;BME280;66719;51.226;6.902;2023-03-23T08:46:39;99718.22;;;12.61;100.00
4836;BME280;66719;51.226;6.902;2023-03-23T08:49:05;99711.31;;;12.58;100.00
4836;BME280;66719;51.226;6.902;2023-03-23T08:51:31;99721.03;;;12.56;100.00
4836;BME280;66719;51.226;6.902;2023-03-23T08:53:56;99742.72;;;12.61;100.00
4836;BME280;66719;51.226;6.902;2023-03-23T08:56:22;99734.22;;;12.75;100.00
4836;BME280;66719;51.226;6.902;2023-03-23T08:58:48;99726.25;;;12.77;100.00
4836;BME280;66719;51.226;6.902;2023-03-23T09:01:14;99733.28;;;12.76;100.00
4836;BME280;66719;51.226;6.902;2023-03-23T09:03:40;99734.22;;;12.75;100.00
4836;BME280;66719;51.226;6.902;2023-03-23T09:06:08;99728.03;;;12.76;100.00
4836;BME280;66719;51.226;6.902;2023-03-23T09:08:34;99728.09;;;12.74;100.00
4836;BME280;66719;51.226;6.902;2023-03-23T09:11:06;99722.75;;;12.78;100.00
4836;BME280;66719;51.226;6.902;2023-03-23T09:13:38;99726.41;;;12.73;100.00
4836;BME280;66719;51.226;6.902;2023-03-23T09:16:05;99736.06;;;12.73;100.00
4836;BME280;66719;51.226;6.902;2023-03-23T09:18:31;99743.63;;;12.81;100.00
4836;BME280;66719;51.226;6.902;2023-03-23T09:21:00;99722.34;;;12.87;100.00
4836;BME280;66719;51.226;6.902;2023-03-23T09:23:27;99722.19;;;12.90;100.00
4836;BME280;66719;51.226;6.902;2023-03-23T09:25:52;99718.38;;;12.97;100.00
4836;BME280;66719;51.226;6.902;2023-03-23T09:28:18;99727.88;;;12.99;100.00
4836;BME280;66719;51.226;6.902;2023-03-23T09:30:44;99725.00;;;13.06;100.00
4836;BME280;66719;51.226;6.902;2023-03-23T09:33:11;99726.75;;;13.05;100.00
4836;BME280;66719;51.226;6.902;2023-03-23T09:35:37;99723.38;;;13.03;100.00
4836;BME280;66719;51.226;6.902;2023-03-23T09:38:05;99736.44;;;13.05;100.00
4836;BME280;66719;51.226;6.902;2023-03-23T09:40:42;99728.63;;;13.03;100.00
4836;BME280;66719;51.226;6.902;2023-03-23T09:46:51;99731.50;;;12.97;100.00
4836;BME280;66719;51.226;6.902;2023-03-23T09:52:07;99740.25;;;12.97;100.00
4836;BME280;66719;51.226;6.902;2023-03-23T09:54:47;99735.75;;;12.99;100.00
4836;BME280;66719;51.226;6.902;2023-03-23T09:57:32;99730.59;;;12.98;100.00
4836;BME280;66719;51.226;6.902;2023-03-23T10:03:06;99730.16;;;13.07;100.00
4836;BME280;66719;51.226;6.902;2023-03-23T10:05:42;99734.56;;;13.07;100.00
4836;BME280;66719;51.226;6.902;2023-03-23T10:08:22;99738.25;;;13.02;100.00
4836;BME280;66719;51.226;6.902;2023-03-23T10:16:36;99781.44;;;12.97;100.00
4836;BME280;66719;51.226;6.902;2023-03-23T10:21:38;99815.06;;;11.81;100.00
4836;BME280;66719;51.226;6.902;2023-03-23T10:24:10;99804.84;;;11.26;100.00
4836;BME280;66719;51.226;6.902;2023-03-23T10:31:58;99783.56;;;10.62;100.00
4836;BME280;66719;51.226;6.902;2023-03-23T10:34:30;99779.31;;;10.58;100.00
4836;BME280;66719;51.226;6.902;2023-03-23T10:40:00;99783.09;;;10.50;100.00
4836;BME280;66719;51.226;6.902;2023-03-23T10:42:34;99782.31;;;10.47;100.00
4836;BME280;66719;51.226;6.902;2023-03-23T10:45:22;99779.91;;;10.41;100.00
4836;BME280;66719;51.226;6.902;2023-03-23T10:48:11;99784.13;;;10.45;100.00
4836;BME280;66719;51.226;6.902;2023-03-23T10:50:39;99770.56;;;10.34;100.00
4836;BME280;66719;51.226;6.902;2023-03-23T10:53:19;99773.06;;;10.37;100.00
4836;BME280;66719;51.226;6.902;2023-03-23T10:55:46;99759.19;;;10.35;100.00
4836;BME280;66719;51.226;6.902;2023-03-23T10:58:28;99764.41;;;10.35;100.00
4836;BME280;66719;51.226;6.902;2023-03-23T11:00:55;99773.19;;;10.34;100.00
4836;BME280;66719;51.226;6.902;2023-03-23T11:03:25;99766.97;;;10.37;100.00
4836;BME280;66719;51.226;6.902;2023-03-23T11:05:57;99760.88;;;10.36;100.00
4836;BME280;66719;51.226;6.902;2023-03-23T11:08:29;99765.03;;;10.43;100.00
4836;BME280;66719;51.226;6.902;2023-03-23T11:13:42;99787.53;;;10.47;100.00
4836;BME280;66719;51.226;6.902;2023-03-23T11:16:22;99771.25;;;10.39;100.00
4836;BME280;66719;51.226;6.902;2023-03-23T11:18:48;99766.91;;;10.38;100.00
4836;BME280;66719;51.226;6.902;2023-03-23T11:21:14;99758.94;;;10.43;100.00
4836;BME280;66719;51.226;6.902;2023-03-23T11:23:42;99769.97;;;10.26;100.00
4836;BME280;66719;51.226;6.902;2023-03-23T11:28:57;99771.34;;;10.36;100.00
4836;BME280;66719;51.226;6.902;2023-03-23T11:31:28;99765.41;;;10.31;100.00
4836;BME280;66719;51.226;6.902;2023-03-23T11:36:20;99773.59;;;10.20;100.00
4836;BME280;66719;51.226;6.902;2023-03-23T11:38:53;99767.22;;;10.29;100.00
4836;BME280;66719;51.226;6.902;2023-03-23T11:41:22;99759.97;;;10.37;100.00
4836;BME280;66719;51.226;6.902;2023-03-23T11:43:51;99775.50;;;10.43;100.00
4836;BME280;66719;51.226;6.902;2023-03-23T11:46:35;99775.31;;;10.48;100.00
4836;BME280;66719;51.226;6.902;2023-03-23T11:49:10;99767.25;;;10.54;100.00
4836;BME280;66719;51.226;6.902;2023-03-23T11:51:51;99746.88;;;10.64;100.00
4836;BME280;66719;51.226;6.902;2023-03-23T11:54:28;99750.00;;;10.73;100.00
4836;BME280;66719;51.226;6.902;2023-03-23T11:56:54;99740.84;;;10.85;100.00
4836;BME280;66719;51.226;6.902;2023-03-23T11:59:32;99736.16;;;10.95;100.00
4836;BME280;66719;51.226;6.902;2023-03-23T12:02:21;99740.31;;;11.00;100.00
4836;BME280;66719;51.226;6.902;2023-03-23T12:05:28;99755.94;;;11.03;100.00
4836;BME280;66719;51.226;6.902;2023-03-23T12:18:59;99740.47;;;11.19;100.00
4836;BME280;66719;51.226;6.902;2023-03-23T12:25:05;99733.81;;;11.34;100.00
4836;BME280;66719;51.226;6.902;2023-03-23T12:27:37;99737.38;;;11.33;100.00
4836;BME280;66719;51.226;6.902;2023-03-23T12:57:21;99756.69;;;11.99;100.00
4836;BME280;66719;51.226;6.902;2023-03-23T12:59:56;99746.75;;;12.06;100.00
4836;BME280;66719;51.226;6.902;2023-03-23T13:02:32;99747.56;;;12.08;100.00
4836;BME280;66719;51.226;6.902;2023-03-23T13:08:12;99749.69;;;11.98;100.00
4836;BME280;66719;51.226;6.902;2023-03-23T13:10:47;99750.81;;;11.93;100.00
4836;BME280;66719;51.226;6.902;2023-03-23T13:13:41;99742.31;;;11.86;100.00
4836;BME280;66719;51.226;6.902;2023-03-23T13:16:24;99735.19;;;11.89;100.00
4836;BME280;66719;51.226;6.902;2023-03-23T13:24:08;99709.84;;;11.88;100.00
4836;BME280;66719;51.226;6.902;2023-03-23T13:26:39;99706.59;;;11.83;100.00
4836;BME280;66719;51.226;6.902;2023-03-23T13:29:10;99706.31;;;11.89;100.00
4836;BME280;66719;51.226;6.902;2023-03-23T13:31:39;99710.41;;;11.97;100.00
4836;BME280;66719;51.226;6.902;2023-03-23T13:39:27;99713.22;;;11.92;100.00
4836;BME280;66719;51.226;6.902;2023-03-23T13:47:25;99717.94;;;11.84;100.00
4836;BME280;66719;51.226;6.902;2023-03-23T13:50:05;99731.91;;;11.84;100.00
4836;BME280;66719;51.226;6.902;2023-03-23T13:55:20;99733.59;;;11.85;100.00
4836;BME280;66719;51.226;6.902;2023-03-23T13:57:55;99744.25;;;11.81;100.00
4836;BME280;66719;51.226;6.902;2023-03-23T14:03:15;99743.19;;;11.86;100.00
4836;BME280;66719;51.226;6.902;2023-03-23T14:06:00;99750.88;;;11.91;100.00
4836;BME280;66719;51.226;6.902;2023-03-23T14:10:56;99738.47;;;11.95;100.00
4836;BME280;66719;51.226;6.902;2023-03-23T14:16:19;99725.84;;;12.04;100.00
4836;BME280;66719;51.226;6.902;2023-03-23T14:18:56;99726.69;;;12.05;100.00
4836;BME280;66719;51.226;6.902;2023-03-23T14:21:38;99734.13;;;12.15;100.00
4836;BME280;66719;51.226;6.902;2023-03-23T14:24:15;99724.38;;;12.19;100.00
4836;BME280;66719;51.226;6.902;2023-03-23T14:26:41;99730.41;;;12.41;100.00
4836;BME280;66719;51.226;6.902;2023-03-23T14:29:11;99745.41;;;12.60;100.00
4836;BME280;66719;51.226;6.902;2023-03-23T14:31:37;99755.38;;;12.72;100.00
4836;BME280;66719;51.226;6.902;2023-03-23T14:34:10;99781.03;;;12.65;100.00
4836;BME280;66719;51.226;6.902;2023-03-23T14:36:38;99788.06;;;12.65;100.00
4836;BME280;66719;51.226;6.902;2023-03-23T14:39:11;99805.47;;;12.67;100.00
4836;BME280;66719;51.226;6.902;2023-03-23T14:41:38;99802.13;;;12.64;100.00
4836;BME280;66719;51.226;6.902;2023-03-23T14:44:07;99801.28;;;12.63;100.00
4836;BME280;66719;51.226;6.902;2023-03-23T14:46:35;99801.13;;;12.66;100.00
4836;BME280;66719;51.226;6.902;2023-03-23T14:49:04;99805.22;;;12.73;100.00
4836;BME280;66719;51.226;6.902;2023-03-23T14:51:30;99800.03;;;12.72;100.00
4836;BME280;66719;51.226;6.902;2023-03-23T14:53:58;99799.94;;;12.73;100.00
4836;BME280;66719;51.226;6.902;2023-03-23T14:56:35;99798.84;;;12.79;100.00
4836;BME280;66719;51.226;6.902;2023-03-23T14:59:05;99805.06;;;12.77;100.00
4836;BME280;66719;51.226;6.902;2023-03-23T15:01:34;99785.91;;;12.74;100.00
4836;BME280;66719;51.226;6.902;2023-03-23T15:04:19;99766.59;;;12.76;100.00
4836;BME280;66719;51.226;6.902;2023-03-23T15:06:58;99773.69;;;12.73;100.00
4836;BME280;66719;51.226;6.902;2023-03-23T15:09:26;99772.06;;;12.71;100.00
4836;BME280;66719;51.226;6.902;2023-03-23T15:11:58;99760.75;;;12.69;100.00
4836;BME280;66719;51.226;6.902;2023-03-23T15:17:11;99750.25;;;12.69;100.00